Historyczne dane pomiarowe

Dodano dane terminowe – wersja testowa.

Dane z okresu 1951-2019

Wersja bazy: 1.34 [2019-03-16, lista zmian], aktualizacja planowana na 2019-04-15

Dane meteo z obszaru Polski uzyskane na podstawie danych udostępnionych przez Instytut Meteorologii i Gospodarki Wodnej – Państwowy Instytut Badawczy.

 

Wybierz Datę:    

       

TemperaturaWilgotnośćWiatrCiśnienieOpadyŚniegCzas trwania zjawisk
 Stacja t tx tn tng RH VA  wxwx mslp ppp RRR   cm mm wxwxwxwxwxwxwx
1964-02-15-13.7 -5.4-17.6-16.9 55.0- 1.0 0.7---- 0.0-- 32---------
1964-02-16-14.2 -8.2-22.7-25.7 58.0- 4.3 1.3---- 0.0-- 32---------
1964-02-17 -4.8 -2.8-13.6-14.9 81.8- 8.0 3.3---- 0.7-- 31---------
1964-02-18 1.8 4.4 -4.1 -5.6 89.8- 8.0 4.0---- 8.0-- 31---------
1964-02-19 -8.9 0.2-11.5-12.5 75.0- 7.7 1.3---- 0.0-- 30---------
1964-02-20-15.3-10.2-19.9-21.9 57.8- 0.3 1.0---- 0.0-- 30---------
1964-02-21-13.5 -5.4-22.6-23.9 64.5- 2.0 1.3---- 0.0-- 30---------
1964-02-22-11.0 -2.6-17.5-19.9 58.0- 5.3 1.3---- 0.0-- 28---------
1964-02-23 -6.8 -2.4-16.9-18.5 70.0- 4.7 2.3---- 0.0-- 28---------
1964-02-24 -9.6 -3.2-14.9-17.9 60.0- 1.7 2.7---- 0.0-- 28---------
1964-02-25 -9.6 -2.7-17.6-19.9 55.3- 1.0 2.0---- 0.0-- 26---------
1964-02-26 -3.4 -1.2-10.1-11.5 73.8- 8.0 4.3---- 0.0-- 26---------
1964-02-27 -2.8 -2.0 -4.6 -4.6 75.8- 8.0 5.0---- 0.0-- 25---------
1964-02-28 -3.8 -2.4 -5.5 -5.1 73.8- 8.0 4.0---- 0.0-- 25---------
1964-02-29 -3.5 -2.4 -5.3 -4.9 79.3- 8.0 2.7---- 0.0-- 23---------
1964-03-01 -4.9 -3.2 -6.5 -6.1 81.5- 7.7 2.7---- 0.4-- 22---------
1964-03-02 -5.9 -2.2 -9.6-11.2 72.8- 8.0 5.3---- 0.2-- 22---------
1964-03-03 -3.4 -1.8 -6.6 -6.6 88.5- 8.0 4.3---- 0.9-- 23---------
1964-03-04 -5.9 -1.0 -9.5 -5.1 77.3- 5.7 2.7---- 0.6-- 24---------
1964-03-05 -5.9 -4.2-10.0-12.5 81.3- 8.0 3.0---- 0.4-- 25---------
1964-03-06-12.5 -5.7-14.1-13.0 68.3- 2.0 5.3---- 0.0-- 25---------
1964-03-07-13.8-10.2-19.7-19.7 63.8- 4.0 6.0---- 0.4-- 25---------
1964-03-08-13.7 -8.4-16.1-14.8 66.8- 3.0 3.3---- 0.0-- 25---------
1964-03-09 -6.1 -0.1-19.1-20.9 70.5- 5.3 1.7---- 0.0-- 24---------
1964-03-10 -0.8 4.4 -4.8 -5.6 77.0- 4.3 2.7---- 0.0-- 24---------
1964-03-11 -3.9 1.4 -9.6-12.8 80.8- 5.3 1.7---- 0.0-- 21---------
1964-03-12 -1.9 -0.4-10.0-12.5 85.3- 8.0 1.3---- 0.0-- 21---------
1964-03-13 -2.3 0.4 -3.9 -5.9 82.3- 7.0 4.0---- 0.0-- 21---------
1964-03-14 -5.6 -2.7 -7.5 -7.1 78.3- 7.3 8.3---- 0.2-- 19---------
1964-03-15 -9.3 -6.7-12.6-12.8 75.0- 6.3 7.7---- 0.0-- 19---------
87.5 ms

 

Źródłem pochodzenia danych jest Instytut Meteorologii i Gospodarki Wodnej – Państwowy Instytut Badawczy. Dane Instytutu Meteorologii i Gospodarki Wodnej – Państwowego Instytutu Badawczego zostały przetworzone.

Dane źródłowe można odnaleźć na stronie https://dane.imgw.pl